Weather at Lonely Mountain Landing Strip [CLOSED]

Public forecast

Using degrees Fahrenheit for public forecast. Weather courtesy of forecast.io.

Closest aviation weather report (METAR) to Lonely Mountain Landing Strip

Closest report is Show Low Regional Airport, 29.1 nm (54.0 km) ENE. Retrieved 2022/01/22 20:35 UTC (3 minutes ago):

KSOW 222035Z AUTO 29008KT 10SM FEW035 SCT044 BKN049 05/M03 A3010 RMK AO2

Closest aviation forecast (TAF) to Lonely Mountain Landing Strip

Closest forecast is Winslow Lindbergh Regional Airport, 60.5 nm (112.1 km) N. Retrieved 2022/01/22 18:39 UTC (2 hours ago):

TAF KINW 221736Z 2218/2318 05009KT P6SM SCT050 OVC080 FM230200 33007KT P6SM SCT050 BKN080